This is the latest recevied weather packets stored in our database for station/object KA8DUX-2. If no packets are shown the sender has not sent any weather packets the latest 1 day(s).
| Time | Temp. | Humidity | Pressure | Rain* | Wind** | Luminosity | Snow |
|---|---|---|---|---|---|---|---|
| 1778018169 | 11.67° C | 45% | 1006.9 hPa | 0 mm | 0.45 m/s, 236° | 115 W/m² | - |
| 1778017867 | 11.67° C | 46% | 1007.5 hPa | 0 mm | 0.89 m/s, 356° | 117 W/m² | - |
| 1778017565 | 11.67° C | 46% | 1007.5 hPa | 0 mm | 1.34 m/s, 160° | 118 W/m² | - |
| 1778017262 | 11.67° C | 45% | 1007.4 hPa | 0 mm | 0.89 m/s, 95° | 117 W/m² | - |
| 1778016960 | 11.67° C | 44% | 1007.3 hPa | 0 mm | 0.89 m/s, 247° | 125 W/m² | - |
| 1778016656 | 11.67° C | 46% | 1007.2 hPa | 0 mm | 0.45 m/s, 147° | 124 W/m² | - |
| 1778016352 | 11.67° C | 44% | 1007.2 hPa | 0 mm | 0.45 m/s, 130° | 129 W/m² | - |
| 1778016050 | 12.22° C | 43% | 1007.2 hPa | 0 mm | 0.89 m/s, 119° | 125 W/m² | - |
| 1778015746 | 11.67° C | 44% | 1007.2 hPa | 0 mm | 0 m/s | 133 W/m² | - |
| 1778015443 | 11.67° C | 43% | 1007.5 hPa | 0 mm | 0 m/s | 157 W/m² | - |
| 1778015140 | 11.67° C | 43% | 1007.4 hPa | 0 mm | 1.34 m/s, 253° | 159 W/m² | - |
| 1778014837 | 12.22° C | 45% | 1007.4 hPa | 0 mm | 0.45 m/s, 19° | 164 W/m² | - |
| 1778014535 | 12.22° C | 42% | 1007.5 hPa | 0 mm | 1.34 m/s, 269° | 186 W/m² | - |
| 1778014232 | 12.22° C | 44% | 1007.4 hPa | 0 mm | 0.45 m/s, 197° | 190 W/m² | - |
| 1778013930 | 12.22° C | 43% | 1007.4 hPa | 0 mm | 0.89 m/s, 343° | 201 W/m² | - |
| 1778013627 | 12.78° C | 42% | 1007.4 hPa | 0 mm | 1.79 m/s, 310° | 224 W/m² | - |
| 1778013323 | 12.78° C | 43% | 1007.6 hPa | 0 mm | 0.45 m/s, 252° | 344 W/m² | - |
| 1778013020 | 12.78° C | 42% | 1007.8 hPa | 0 mm | 0.89 m/s, 64° | 451 W/m² | - |
| 1778012716 | 12.22° C | 43% | 1007.6 hPa | 0 mm | 1.34 m/s, 184° | 468 W/m² | - |
| 1778012412 | 12.22° C | 43% | 1007.6 hPa | 0 mm | 0.89 m/s, 37° | 323 W/m² | - |
| 1778012110 | 12.22° C | 45% | 1007.5 hPa | 0 mm | 0.45 m/s, 304° | 241 W/m² | - |
| 1778011807 | 12.78° C | 43% | 1007.6 hPa | 0 mm | 1.34 m/s, 304° | 247 W/m² | - |
| 1778011505 | 12.22° C | 44% | 1007.7 hPa | 0 mm | 1.34 m/s, 246° | 283 W/m² | - |
| 1778011201 | 12.78° C | 42% | 1007.6 hPa | 0 mm | 2.24 m/s, 116° | 239 W/m² | - |
| 1778010898 | 12.78° C | 45% | 1007.6 hPa | 0 mm | 0.45 m/s, 192° | 276 W/m² | - |
* Rain latest hour (hover to see other rain measurements)
** Current wind speed in m/s (hover to see current wind gust speed)